KPMU/PMU METAR and TAF weather

Enter ICAO airport designator
Station Type Date Time Source
KPMU METAR 2021/04/13 22:15 UTC NOAA

KPMU 132215Z AUTO 05006KT 10SM FEW070 27/17 A2999 RMK AO2


Station Type Date Time Source
KPMU Decoded METAR 2021/04/13 22:15 UTC NOAA

Station name not available
Apr 13, 2021 - 06:15 PM EDT / 2021.04.13 2215 UTC
Wind: from the NE (050 degrees) at 7 MPH (6 KT):0
Visibility: 10 mile(s):0
Sky conditions: mostly clear
Temperature: 80 F (27 C)
Dew Point: 62 F (17 C)
Relative Humidity: 54%
Pressure (altimeter): 29.99 in. Hg (1015 hPa)
ob: KPMU 132215Z AUTO 05006KT 10SM FEW070 27/17 A2999 RMK AO2
cycle: 22

Station Type Date Time Source
KPMU TAF UTC NOAA

Error!

Example: see airport list